Mid Delta Regional Airport Greenville US
ICAO: KGLH
IATA: GLH
Category: Medium
Scheduled Services: Yes

Elevation: 131 ft
TransAlt. 18000 ft.

Airport Communications:
ASOS:125.525
MEMPHIS CNTR:135.875
CTAF:119
GND:121.8
GREENVILLE TWR:119
UNICOM:122.95

KGLH Zoom In..

If you have problems with the map follow the link
https://www.worldairports.se/pages/airport.php?
ICAO=KGLH

Runways:

(A) RW 18L length 8001 ft width 150 ft
ILS 109.10 / hdg 177

(B) RW 18R length 7019 ft width 150 ft
---- / hdg 177

(C) RW 36L length 7019 ft width 150 ft
---- / hdg 357

(D) RW 36R length 8001 ft width 150 ft
---- / hdg 357

Location; KGLH
Day. 06 / Time. 12.25 Zulu
* Altimeter: 29.99
* Temperature: 12° c. 53.6°f.
* Wind from: 160° Speed 09 kn.
Dewpoint: 09° c.
Visibility: 10 Statute Miles.
Clouds: Scattered 3000 ft.
Clouds: Broken 4400 ft.
Clouds: Overcast 8000 ft.

KGLH 061225Z AUTO 16009KT 10SM -TSRA SCT030 BKN044 OVC080 12/09 A2999 RMK AO2 LTG DSNT N AND NE RAE09B17 TSB19 P0002 T01170089


Wind From 160°
Speed 09 kn.

 
 
jpsmedia worldairports.se 2019   terms of use